createdAt,value
2023-01-15T00:08:02.216Z,7.5
2023-01-15T00:20:02.187Z,7.4
2023-01-15T00:32:02.134Z,6.5
2023-01-15T00:44:02.100Z,6.1
2023-01-15T00:56:02.133Z,5.9
2023-01-15T01:08:02.181Z,5.6
2023-01-15T01:20:02.154Z,5.4
2023-01-15T01:32:02.224Z,5.3
2023-01-15T01:44:02.113Z,4.9
2023-01-15T01:56:02.120Z,4.7
2023-01-15T02:08:02.112Z,4.4
2023-01-15T02:20:02.202Z,4.2
2023-01-15T02:32:02.271Z,4.1
2023-01-15T02:44:02.197Z,4.0
2023-01-15T02:56:02.166Z,3.9
2023-01-15T03:08:02.207Z,3.8
2023-01-15T03:20:02.146Z,3.7
2023-01-15T03:32:02.231Z,3.7
2023-01-15T03:44:02.152Z,3.7
2023-01-15T03:56:02.129Z,3.6
2023-01-15T04:08:02.168Z,3.5
2023-01-15T04:20:02.129Z,3.3
2023-01-15T04:32:02.115Z,3.2
2023-01-15T04:44:02.118Z,3.0
2023-01-15T04:56:02.113Z,3.0
2023-01-15T05:08:02.972Z,3.0
2023-01-15T05:20:02.176Z,3.0
2023-01-15T05:32:02.173Z,3.0
2023-01-15T05:44:02.128Z,2.9
2023-01-15T05:56:02.211Z,2.9
2023-01-15T06:08:02.127Z,2.8
2023-01-15T06:20:02.216Z,2.7
2023-01-15T06:32:02.128Z,2.7
2023-01-15T06:44:02.103Z,2.7
2023-01-15T06:56:02.160Z,2.7
2023-01-15T07:08:03.668Z,2.7
2023-01-15T07:20:02.209Z,2.7
2023-01-15T07:32:02.218Z,2.7
2023-01-15T07:44:02.210Z,2.7
2023-01-15T07:56:02.138Z,2.7
2023-01-15T08:08:02.119Z,2.7
2023-01-15T08:20:02.170Z,2.6
2023-01-15T08:32:03.314Z,2.8
2023-01-15T08:44:02.118Z,2.8
2023-01-15T08:56:02.117Z,2.8
2023-01-15T09:08:02.124Z,2.9
2023-01-15T09:20:02.196Z,3.0
2023-01-15T09:32:02.193Z,2.9
2023-01-15T09:44:02.108Z,2.9
2023-01-15T09:56:02.134Z,3.0
2023-01-15T10:08:02.118Z,3.1
2023-01-15T10:20:02.597Z,3.1
2023-01-15T10:32:02.186Z,3.3
2023-01-15T10:44:02.173Z,3.5
2023-01-15T10:56:02.113Z,3.6
2023-01-15T11:08:34.243Z,3.6
2023-01-15T11:20:02.147Z,3.9
2023-01-15T11:32:02.654Z,4.0
2023-01-15T11:44:02.171Z,4.4
2023-01-15T11:56:02.201Z,4.4
2023-01-15T12:08:02.123Z,4.4
2023-01-15T12:20:02.108Z,4.4
2023-01-15T12:32:02.110Z,4.5
2023-01-15T12:44:02.111Z,4.6
2023-01-15T12:56:02.112Z,4.6
2023-01-15T13:08:02.127Z,4.5
2023-01-15T13:20:02.198Z,4.6
2023-01-15T13:32:02.246Z,4.6
2023-01-15T13:44:02.194Z,4.6
2023-01-15T13:56:02.106Z,4.6
2023-01-15T14:08:02.127Z,4.6
2023-01-15T14:20:02.154Z,4.7
2023-01-15T14:32:02.129Z,4.7
2023-01-15T14:44:02.229Z,4.7
2023-01-15T14:56:02.183Z,4.7
2023-01-15T15:08:02.122Z,4.6
2023-01-15T15:20:02.314Z,4.6
2023-01-15T15:32:02.124Z,4.3
2023-01-15T15:44:02.218Z,4.2
2023-01-15T15:56:02.201Z,4.2
2023-01-15T16:08:02.120Z,4.1
2023-01-15T16:20:02.109Z,4.1
2023-01-15T16:32:02.123Z,4.0
2023-01-15T16:44:02.146Z,3.9
2023-01-15T16:56:02.208Z,3.8
2023-01-15T17:08:02.111Z,3.8
2023-01-15T17:20:02.121Z,3.7
2023-01-15T17:32:04.363Z,3.7
2023-01-15T17:44:02.142Z,3.6
2023-01-15T17:56:02.117Z,3.6
2023-01-15T18:08:02.139Z,3.6
2023-01-15T18:20:02.105Z,3.5
2023-01-15T18:32:02.109Z,3.3
2023-01-15T18:44:02.114Z,3.2
2023-01-15T18:56:02.199Z,3.2
2023-01-15T19:08:02.125Z,2.9
2023-01-15T19:20:02.173Z,2.8
2023-01-15T19:32:02.163Z,2.7
2023-01-15T19:44:02.135Z,2.4
2023-01-15T19:56:02.166Z,2.3
2023-01-15T20:08:02.122Z,2.6
2023-01-15T20:20:02.103Z,2.8
2023-01-15T20:32:02.101Z,2.9
2023-01-15T20:44:02.200Z,3.1
2023-01-15T20:56:02.195Z,3.2
2023-01-15T21:08:02.112Z,3.2
2023-01-15T21:20:02.122Z,3.2
2023-01-15T21:32:02.167Z,3.2
2023-01-15T21:44:02.207Z,3.3
2023-01-15T21:56:02.098Z,3.3
2023-01-15T22:08:02.182Z,3.4
2023-01-15T22:20:02.149Z,3.5
2023-01-15T22:32:02.106Z,3.5
2023-01-15T22:44:02.164Z,3.4
2023-01-15T22:56:02.135Z,3.4
2023-01-15T23:08:02.113Z,3.5
2023-01-15T23:20:02.198Z,3.5
2023-01-15T23:32:02.103Z,3.5
2023-01-15T23:44:02.172Z,3.5
2023-01-15T23:56:02.139Z,3.5
